createdAt,value
2017-06-30T00:00:30.338Z,1022.97
2017-06-30T00:01:30.981Z,1022.92
2017-06-30T00:02:31.871Z,1022.96
2017-06-30T00:03:32.514Z,1022.98
2017-06-30T00:04:33.157Z,1022.98
2017-06-30T00:05:33.798Z,1022.98
2017-06-30T00:06:34.437Z,1022.93
2017-06-30T00:07:35.086Z,1023.07
2017-06-30T00:08:35.729Z,1023.10
2017-06-30T00:09:36.370Z,1023.01
2017-06-30T00:10:37.264Z,1023.03
2017-06-30T00:11:37.910Z,1023.04
2017-06-30T00:12:38.608Z,1023.01
2017-06-30T00:13:39.253Z,1023.07
2017-06-30T00:14:39.894Z,1022.99
2017-06-30T00:15:40.536Z,1023.04
2017-06-30T00:16:41.178Z,1023.04
2017-06-30T00:17:41.820Z,1022.98
2017-06-30T00:18:42.811Z,1023.01
2017-06-30T00:19:43.455Z,1022.98
2017-06-30T00:20:44.094Z,1023.05
2017-06-30T00:21:44.736Z,1023.04
2017-06-30T00:22:45.381Z,1023.11
2017-06-30T00:23:46.025Z,1023.05
2017-06-30T00:24:46.664Z,1023.04
2017-06-30T00:25:47.304Z,1023.12
2017-06-30T00:26:47.946Z,1023.09
2017-06-30T00:27:48.889Z,1023.05
2017-06-30T00:28:49.527Z,1023.11
2017-06-30T00:29:50.171Z,1023.11
2017-06-30T00:30:50.813Z,1023.09
2017-06-30T00:31:51.457Z,1023.17
2017-06-30T00:32:52.095Z,1023.04
2017-06-30T00:33:52.736Z,1023.07
2017-06-30T00:34:53.379Z,1022.99
2017-06-30T00:35:54.221Z,1023.03
2017-06-30T00:36:54.863Z,1022.99
2017-06-30T00:37:55.503Z,1022.99
2017-06-30T00:38:56.145Z,1023.00
2017-06-30T00:39:56.785Z,1022.99
2017-06-30T00:40:57.426Z,1023.00
2017-06-30T00:41:58.069Z,1022.95
2017-06-30T00:42:58.711Z,1022.92
2017-06-30T00:43:59.853Z,1022.97
2017-06-30T00:45:00.497Z,1022.95
2017-06-30T00:46:01.139Z,1022.89
2017-06-30T00:47:01.783Z,1022.90
2017-06-30T00:48:02.424Z,1022.88
2017-06-30T00:49:03.068Z,1022.90
2017-06-30T00:50:03.707Z,1022.82
2017-06-30T00:51:04.351Z,1022.88
2017-06-30T00:52:05.193Z,1022.90
2017-06-30T00:53:05.836Z,1022.81
2017-06-30T00:54:06.478Z,1022.91
2017-06-30T00:55:07.118Z,1022.86
2017-06-30T00:56:07.760Z,1022.83
2017-06-30T00:57:08.400Z,1022.78
2017-06-30T00:58:09.040Z,1022.79
2017-06-30T00:59:09.683Z,1022.84
2017-06-30T01:00:10.476Z,1022.76
2017-06-30T01:01:11.118Z,1022.81
2017-06-30T01:02:11.760Z,1022.76
2017-06-30T01:03:12.403Z,1022.77
2017-06-30T01:04:13.045Z,1022.79
2017-06-30T01:05:13.689Z,1022.80
2017-06-30T01:06:14.328Z,1022.77
2017-06-30T01:07:14.971Z,1022.72
2017-06-30T01:08:15.613Z,1022.74
2017-06-30T01:09:16.453Z,1022.77
2017-06-30T01:10:17.096Z,1022.73
2017-06-30T01:11:17.736Z,1022.74
2017-06-30T01:12:18.378Z,1022.74
2017-06-30T01:13:19.022Z,1022.68
2017-06-30T01:14:19.664Z,1022.66
2017-06-30T01:15:20.304Z,1022.65
2017-06-30T01:16:20.946Z,1022.70
2017-06-30T01:17:21.738Z,1022.68
2017-06-30T01:18:22.384Z,1022.72
2017-06-30T01:19:23.024Z,1022.76
2017-06-30T01:20:23.665Z,1022.77
2017-06-30T01:21:24.309Z,1022.66
2017-06-30T01:22:24.953Z,1022.68
2017-06-30T01:23:25.595Z,1022.66
2017-06-30T01:24:26.233Z,1022.61
2017-06-30T01:25:27.076Z,1022.62
2017-06-30T01:26:27.718Z,1022.57
2017-06-30T01:27:28.360Z,1022.54
2017-06-30T01:28:29.001Z,1022.57
2017-06-30T01:29:29.642Z,1022.53
2017-06-30T01:30:30.285Z,1022.40
2017-06-30T01:31:30.926Z,1022.52
2017-06-30T01:32:31.566Z,1022.43
2017-06-30T01:33:32.409Z,1022.40
2017-06-30T01:34:33.051Z,1022.41
2017-06-30T01:35:33.693Z,1022.45
2017-06-30T01:36:34.333Z,1022.39
2017-06-30T01:37:34.975Z,1022.44
2017-06-30T01:38:35.617Z,1022.38
2017-06-30T01:39:36.260Z,1022.43
2017-06-30T01:40:36.900Z,1022.37
2017-06-30T01:41:37.540Z,1022.46
2017-06-30T01:42:38.332Z,1022.35
2017-06-30T01:43:38.975Z,1022.32
2017-06-30T01:44:39.614Z,1022.32
2017-06-30T01:45:40.256Z,1022.35
2017-06-30T01:46:40.898Z,1022.36
2017-06-30T01:47:41.538Z,1022.37
2017-06-30T01:48:42.130Z,1022.37
2017-06-30T01:49:42.772Z,1022.44
2017-06-30T01:50:43.612Z,1022.44
2017-06-30T01:51:44.257Z,1022.46
2017-06-30T01:52:44.900Z,1022.50
2017-06-30T01:53:45.541Z,1022.50
2017-06-30T01:54:46.183Z,1022.43
2017-06-30T01:55:46.822Z,1022.45
2017-06-30T01:56:47.463Z,1022.43
2017-06-30T01:57:48.104Z,1022.45
2017-06-30T01:58:48.946Z,1022.44
2017-06-30T01:59:49.586Z,1022.42
2017-06-30T02:00:50.226Z,1022.53
2017-06-30T02:01:50.868Z,1022.45
2017-06-30T02:02:51.510Z,1022.53
2017-06-30T02:03:52.151Z,1022.53
2017-06-30T02:04:52.794Z,1022.52
2017-06-30T02:05:53.434Z,1022.55
2017-06-30T02:06:54.224Z,1022.50
2017-06-30T02:07:54.867Z,1022.56
2017-06-30T02:08:55.510Z,1022.58
2017-06-30T02:09:56.152Z,1022.57
2017-06-30T02:10:56.792Z,1022.45
2017-06-30T02:11:57.433Z,1022.44
2017-06-30T02:12:58.026Z,1022.43
2017-06-30T02:13:58.670Z,1022.47
2017-06-30T02:14:59.511Z,1022.43
2017-06-30T02:16:00.156Z,1022.46
2017-06-30T02:17:00.795Z,1022.45
2017-06-30T02:18:01.435Z,1022.45
2017-06-30T02:19:02.081Z,1022.40
2017-06-30T02:20:02.726Z,1022.34
2017-06-30T02:21:03.365Z,1022.35
2017-06-30T02:22:04.005Z,1022.42
2017-06-30T02:23:04.648Z,1022.33
2017-06-30T02:24:05.488Z,1022.26
2017-06-30T02:25:06.135Z,1022.30
2017-06-30T02:26:06.774Z,1022.24
2017-06-30T02:27:07.414Z,1022.25
2017-06-30T02:28:08.054Z,1022.19
2017-06-30T02:29:08.696Z,1022.19
2017-06-30T02:30:09.337Z,1022.21
2017-06-30T02:31:09.980Z,1022.21
2017-06-30T02:32:10.920Z,1022.18
2017-06-30T02:33:11.563Z,1022.18
2017-06-30T02:34:12.205Z,1022.16
2017-06-30T02:35:12.843Z,1022.14
2017-06-30T02:36:13.487Z,1022.13
2017-06-30T02:37:14.126Z,1022.13
2017-06-30T02:38:14.770Z,1022.17
2017-06-30T02:39:15.412Z,1022.21
2017-06-30T02:40:16.204Z,1022.21
2017-06-30T02:41:16.845Z,1022.18
2017-06-30T02:42:17.488Z,1022.25
2017-06-30T02:43:18.131Z,1022.25
2017-06-30T02:44:18.773Z,1022.22
2017-06-30T02:45:19.413Z,1022.24
2017-06-30T02:46:20.054Z,1022.32
2017-06-30T02:47:20.695Z,1022.28
2017-06-30T02:48:21.541Z,1022.35
2017-06-30T02:49:22.179Z,1022.24
2017-06-30T02:50:22.819Z,1022.32
2017-06-30T02:51:23.459Z,1022.32
2017-06-30T02:52:24.101Z,1022.35
2017-06-30T02:53:24.744Z,1022.36
2017-06-30T02:54:25.445Z,1022.39
2017-06-30T02:55:26.086Z,1022.36
2017-06-30T02:56:26.728Z,1022.35
2017-06-30T02:57:27.570Z,1022.32
2017-06-30T02:58:28.210Z,1022.34
2017-06-30T02:59:28.854Z,1022.32
2017-06-30T03:00:29.492Z,1022.32
2017-06-30T03:01:30.133Z,1022.29
2017-06-30T03:02:30.777Z,1022.35
2017-06-30T03:03:31.419Z,1022.40
2017-06-30T03:04:32.060Z,1022.39
2017-06-30T03:05:32.901Z,1022.35
2017-06-30T03:06:33.542Z,1022.42
2017-06-30T03:07:34.187Z,1022.43
2017-06-30T03:08:34.830Z,1022.46
2017-06-30T03:09:35.471Z,1022.52
2017-06-30T03:10:36.115Z,1022.51
2017-06-30T03:11:36.753Z,1022.47
2017-06-30T03:12:37.397Z,1022.55
2017-06-30T03:13:38.238Z,1022.45
2017-06-30T03:14:38.879Z,1022.47
2017-06-30T03:15:39.520Z,1022.50
2017-06-30T03:16:40.162Z,1022.57
2017-06-30T03:17:40.805Z,1022.54
2017-06-30T03:18:41.446Z,1022.49
2017-06-30T03:19:42.086Z,1022.47
2017-06-30T03:20:42.731Z,1022.45
2017-06-30T03:21:43.573Z,1022.48
2017-06-30T03:22:44.214Z,1022.54
2017-06-30T03:23:44.856Z,1022.46
2017-06-30T03:24:45.496Z,1022.41
2017-06-30T03:25:46.138Z,1022.52
2017-06-30T03:26:46.780Z,1022.52
2017-06-30T03:27:47.421Z,1022.55
2017-06-30T03:28:48.062Z,1022.52
2017-06-30T03:29:48.855Z,1022.52
2017-06-30T03:30:49.554Z,1022.51
2017-06-30T03:31:50.196Z,1022.56
2017-06-30T03:32:50.837Z,1022.56
2017-06-30T03:33:51.482Z,1022.59
2017-06-30T03:34:52.120Z,1022.49
2017-06-30T03:35:52.763Z,1022.55
2017-06-30T03:36:53.404Z,1022.51
2017-06-30T03:37:54.046Z,1022.51
2017-06-30T03:38:54.888Z,1022.47
2017-06-30T03:39:55.527Z,1022.48
2017-06-30T03:40:56.170Z,1022.45
2017-06-30T03:41:56.813Z,1022.49
2017-06-30T03:42:57.454Z,1022.46
2017-06-30T03:43:58.093Z,1022.51
2017-06-30T03:44:58.736Z,1022.44
2017-06-30T03:45:59.379Z,1022.37
2017-06-30T03:47:00.221Z,1022.39
2017-06-30T03:48:00.862Z,1022.35
2017-06-30T03:49:01.502Z,1022.24
2017-06-30T03:50:02.145Z,1022.41
2017-06-30T03:51:02.789Z,1022.36
2017-06-30T03:52:03.428Z,1022.41
2017-06-30T03:53:04.070Z,1022.44
2017-06-30T03:54:04.713Z,1022.32
2017-06-30T03:55:05.802Z,1022.39
2017-06-30T03:56:06.444Z,1022.34
2017-06-30T03:57:07.084Z,1022.42
2017-06-30T03:58:07.731Z,1022.33
2017-06-30T03:59:08.373Z,1022.41
2017-06-30T04:00:09.013Z,1022.46
2017-06-30T04:01:09.655Z,1022.44
2017-06-30T04:02:10.298Z,1022.39
2017-06-30T04:03:11.142Z,1022.36
2017-06-30T04:04:11.783Z,1022.40
2017-06-30T04:05:12.423Z,1022.48
2017-06-30T04:06:13.065Z,1022.46
2017-06-30T04:07:13.707Z,1022.46
2017-06-30T04:08:14.349Z,1022.46
2017-06-30T04:09:14.994Z,1022.42
2017-06-30T04:10:15.629Z,1022.47
2017-06-30T04:11:16.273Z,1022.50
2017-06-30T04:12:17.164Z,1022.47
2017-06-30T04:13:17.808Z,1022.54
2017-06-30T04:14:18.453Z,1022.60
2017-06-30T04:15:19.096Z,1022.60
2017-06-30T04:16:19.735Z,1022.63
2017-06-30T04:17:20.376Z,1022.59
2017-06-30T04:18:21.019Z,1022.60
2017-06-30T04:19:21.660Z,1022.59
2017-06-30T04:20:22.500Z,1022.46
2017-06-30T04:21:23.151Z,1022.53
2017-06-30T04:22:23.789Z,1022.57
2017-06-30T04:23:24.430Z,1022.61
2017-06-30T04:24:25.073Z,1022.60
2017-06-30T04:25:25.712Z,1022.58
2017-06-30T04:26:26.355Z,1022.63
2017-06-30T04:27:26.997Z,1022.62
2017-06-30T04:28:27.789Z,1022.62
2017-06-30T04:29:28.430Z,1022.74
2017-06-30T04:30:29.072Z,1022.69
2017-06-30T04:31:29.714Z,1022.76
2017-06-30T04:32:30.356Z,1022.75
2017-06-30T04:33:30.996Z,1022.71
2017-06-30T04:34:31.636Z,1022.71
2017-06-30T04:35:32.278Z,1022.82
2017-06-30T04:36:33.121Z,1022.74
2017-06-30T04:37:33.760Z,1022.78
2017-06-30T04:38:34.402Z,1022.78
2017-06-30T04:39:35.041Z,1022.80
2017-06-30T04:40:35.683Z,1022.76
2017-06-30T04:41:36.325Z,1022.80
2017-06-30T04:42:36.966Z,1022.76
2017-06-30T04:43:37.609Z,1022.78
2017-06-30T04:44:38.399Z,1022.83
2017-06-30T04:45:39.043Z,1022.80
2017-06-30T04:46:39.685Z,1022.84
2017-06-30T04:47:40.330Z,1022.84
2017-06-30T04:48:40.973Z,1022.94
2017-06-30T04:49:41.611Z,1022.93
2017-06-30T04:50:42.251Z,1022.92
2017-06-30T04:51:42.894Z,1022.91
2017-06-30T04:52:43.534Z,1022.96
2017-06-30T04:53:44.376Z,1022.93
2017-06-30T04:54:45.016Z,1023.05
2017-06-30T04:55:45.659Z,1022.97
2017-06-30T04:56:46.301Z,1022.99
2017-06-30T04:57:46.943Z,1022.99
2017-06-30T04:58:47.582Z,1022.94
2017-06-30T04:59:48.225Z,1022.95
2017-06-30T05:00:48.867Z,1023.04
2017-06-30T05:01:49.709Z,1023.02
2017-06-30T05:02:50.349Z,1022.98
2017-06-30T05:03:50.990Z,1023.04
2017-06-30T05:04:51.632Z,1023.00
2017-06-30T05:05:52.277Z,1022.96
2017-06-30T05:06:52.918Z,1022.94
2017-06-30T05:07:53.556Z,1022.95
2017-06-30T05:08:54.148Z,1022.94
2017-06-30T05:09:54.989Z,1022.85
2017-06-30T05:10:55.634Z,1022.85
2017-06-30T05:11:56.273Z,1022.85
2017-06-30T05:12:56.916Z,1022.80
2017-06-30T05:13:57.558Z,1022.83
2017-06-30T05:14:58.200Z,1022.92
2017-06-30T05:15:58.841Z,1022.97
2017-06-30T05:16:59.488Z,1023.02
2017-06-30T05:18:00.274Z,1022.97
2017-06-30T05:19:00.918Z,1023.06
2017-06-30T05:20:01.559Z,1023.04
2017-06-30T05:21:02.204Z,1023.09
2017-06-30T05:22:02.846Z,1023.06
2017-06-30T05:23:03.486Z,1023.03
2017-06-30T05:24:04.125Z,1023.15
2017-06-30T05:25:04.769Z,1023.13
2017-06-30T05:26:05.408Z,1023.10
2017-06-30T05:27:06.349Z,1023.01
2017-06-30T05:28:06.991Z,1023.01
2017-06-30T05:29:07.633Z,1023.00
2017-06-30T05:30:08.277Z,1023.03
2017-06-30T05:31:08.916Z,1022.96
2017-06-30T05:32:09.508Z,1023.03
2017-06-30T05:33:10.148Z,1022.97
2017-06-30T05:34:10.793Z,1022.98
2017-06-30T05:35:11.687Z,1022.98
2017-06-30T05:36:12.325Z,1023.12
2017-06-30T05:37:12.966Z,1023.08
2017-06-30T05:38:13.957Z,1023.11
2017-06-30T05:39:14.598Z,1023.13
2017-06-30T05:40:15.240Z,1023.17
2017-06-30T05:41:15.880Z,1023.12
2017-06-30T05:42:16.522Z,1023.13
2017-06-30T05:43:17.315Z,1023.20
2017-06-30T05:44:17.955Z,1023.18
2017-06-30T05:45:18.599Z,1023.22
2017-06-30T05:46:19.242Z,1023.38
2017-06-30T05:47:19.885Z,1023.40
2017-06-30T05:48:20.524Z,1023.31
2017-06-30T05:49:21.167Z,1023.40
2017-06-30T05:50:21.806Z,1023.42
2017-06-30T05:51:22.801Z,1023.50
2017-06-30T05:52:23.442Z,1023.49
2017-06-30T05:53:24.141Z,1023.53
2017-06-30T05:54:24.782Z,1023.44
2017-06-30T05:55:25.424Z,1023.45
2017-06-30T05:56:26.063Z,1023.44
2017-06-30T05:57:26.707Z,1023.47
2017-06-30T05:58:27.350Z,1023.46
2017-06-30T05:59:28.142Z,1023.42
2017-06-30T06:00:28.782Z,1023.45
2017-06-30T06:01:29.424Z,1023.45
2017-06-30T06:02:30.068Z,1023.51
2017-06-30T06:03:30.709Z,1023.51
2017-06-30T06:04:31.349Z,1023.53
2017-06-30T06:05:31.992Z,1023.56
2017-06-30T06:06:32.631Z,1023.55
2017-06-30T06:07:33.271Z,1023.51
2017-06-30T06:08:34.165Z,1023.52
2017-06-30T06:09:34.805Z,1023.59
2017-06-30T06:10:35.449Z,1023.59
2017-06-30T06:11:36.089Z,1023.48
2017-06-30T06:12:36.730Z,1023.45
2017-06-30T06:13:37.370Z,1023.44
2017-06-30T06:14:38.012Z,1023.46
2017-06-30T06:15:38.653Z,1023.46
2017-06-30T06:16:39.600Z,1023.55
2017-06-30T06:17:40.295Z,1023.55
2017-06-30T06:18:40.939Z,1023.55
2017-06-30T06:19:41.579Z,1023.44
2017-06-30T06:20:42.219Z,1023.46
2017-06-30T06:21:42.862Z,1023.40
2017-06-30T06:22:43.502Z,1023.55
2017-06-30T06:23:44.145Z,1023.59
2017-06-30T06:24:44.985Z,1023.64
2017-06-30T06:25:45.629Z,1023.68
2017-06-30T06:26:46.266Z,1023.73
2017-06-30T06:27:46.911Z,1023.70
2017-06-30T06:28:47.549Z,1023.73
2017-06-30T06:29:48.191Z,1023.78
2017-06-30T06:30:48.832Z,1023.70
2017-06-30T06:31:49.477Z,1023.70
2017-06-30T06:32:50.318Z,1023.66
2017-06-30T06:33:50.959Z,1023.69
2017-06-30T06:34:51.599Z,1023.66
2017-06-30T06:35:52.242Z,1023.73
2017-06-30T06:36:52.899Z,1023.85
2017-06-30T06:37:53.524Z,1023.85
2017-06-30T06:38:54.166Z,1023.89
2017-06-30T06:39:54.807Z,1023.80
2017-06-30T06:40:55.950Z,1023.81
2017-06-30T06:41:56.593Z,1023.83
2017-06-30T06:42:57.236Z,1023.92
2017-06-30T06:43:57.875Z,1023.84
2017-06-30T06:44:58.518Z,1023.97
2017-06-30T06:45:59.158Z,1024.04
2017-06-30T06:46:59.801Z,1024.00
2017-06-30T06:48:00.441Z,1024.08
2017-06-30T06:49:01.083Z,1024.10
2017-06-30T06:50:01.927Z,1024.04
2017-06-30T06:51:02.568Z,1024.08
2017-06-30T06:52:03.210Z,1023.93
2017-06-30T06:53:03.848Z,1024.04
2017-06-30T06:54:04.491Z,1024.06
2017-06-30T06:55:05.135Z,1024.02
2017-06-30T06:56:05.776Z,1024.11
2017-06-30T06:57:06.415Z,1024.19
2017-06-30T06:58:07.256Z,1024.16
2017-06-30T06:59:07.899Z,1024.23
2017-06-30T07:00:08.542Z,1024.23
2017-06-30T07:01:09.191Z,1024.23
2017-06-30T07:02:09.833Z,1024.19
2017-06-30T07:03:10.472Z,1024.14
2017-06-30T07:04:11.113Z,1024.20
2017-06-30T07:05:11.753Z,1024.21
2017-06-30T07:06:12.594Z,1024.10
2017-06-30T07:07:13.237Z,1024.15
2017-06-30T07:08:13.876Z,1024.13
2017-06-30T07:09:14.517Z,1024.14
2017-06-30T07:10:15.163Z,1024.24
2017-06-30T07:11:15.802Z,1024.11
2017-06-30T07:12:16.443Z,1024.22
2017-06-30T07:13:17.085Z,1024.17
2017-06-30T07:14:17.928Z,1024.10
2017-06-30T07:15:18.570Z,1024.12
2017-06-30T07:16:19.209Z,1024.09
2017-06-30T07:17:19.853Z,1024.14
2017-06-30T07:18:20.495Z,1024.10
2017-06-30T07:19:21.139Z,1024.17
2017-06-30T07:20:21.778Z,1024.10
2017-06-30T07:21:22.418Z,1024.21
2017-06-30T07:22:23.062Z,1024.21
2017-06-30T07:23:23.901Z,1024.28
2017-06-30T07:24:24.544Z,1024.25
2017-06-30T07:25:25.186Z,1024.22
2017-06-30T07:26:25.825Z,1024.28
2017-06-30T07:27:26.469Z,1024.35
2017-06-30T07:28:27.109Z,1024.31
2017-06-30T07:29:27.749Z,1024.43
2017-06-30T07:30:28.392Z,1024.26
2017-06-30T07:31:29.187Z,1024.34
2017-06-30T07:32:29.825Z,1024.36
2017-06-30T07:33:30.465Z,1024.28
2017-06-30T07:34:31.107Z,1024.32
2017-06-30T07:35:31.750Z,1024.45
2017-06-30T07:36:32.390Z,1024.35
2017-06-30T07:37:33.030Z,1024.44
2017-06-30T07:38:33.674Z,1024.40
2017-06-30T07:39:34.516Z,1024.40
2017-06-30T07:40:35.156Z,1024.43
2017-06-30T07:41:35.797Z,1024.43
2017-06-30T07:42:36.437Z,1024.43
2017-06-30T07:43:37.081Z,1024.47
2017-06-30T07:44:37.723Z,1024.46
2017-06-30T07:45:38.364Z,1024.43
2017-06-30T07:46:39.008Z,1024.49
2017-06-30T07:47:39.849Z,1024.42
2017-06-30T07:48:40.491Z,1024.43
2017-06-30T07:49:41.132Z,1024.53
2017-06-30T07:50:41.774Z,1024.55
2017-06-30T07:51:42.418Z,1024.47
2017-06-30T07:52:43.063Z,1024.47
2017-06-30T07:53:43.710Z,1024.48
2017-06-30T07:54:44.346Z,1024.53
2017-06-30T07:55:45.187Z,1024.56
2017-06-30T07:56:45.829Z,1024.52
2017-06-30T07:57:46.471Z,1024.60
2017-06-30T07:58:47.115Z,1024.58
2017-06-30T07:59:47.758Z,1024.58
2017-06-30T08:00:48.401Z,1024.70
2017-06-30T08:01:49.043Z,1024.64
2017-06-30T08:02:49.685Z,1024.66
2017-06-30T08:03:50.329Z,1024.60
2017-06-30T08:04:51.171Z,1024.60
2017-06-30T08:05:51.817Z,1024.62
2017-06-30T08:06:52.460Z,1024.65
2017-06-30T08:07:53.100Z,1024.67
2017-06-30T08:08:53.740Z,1024.71
2017-06-30T08:09:54.383Z,1024.66
2017-06-30T08:10:55.027Z,1024.60
2017-06-30T08:11:55.669Z,1024.70
2017-06-30T08:12:56.512Z,1024.67
2017-06-30T08:13:57.153Z,1024.64
2017-06-30T08:14:57.794Z,1024.66
2017-06-30T08:15:58.436Z,1024.65
2017-06-30T08:16:59.076Z,1024.67
2017-06-30T08:17:59.720Z,1024.64
2017-06-30T08:19:00.366Z,1024.64
2017-06-30T08:20:01.007Z,1024.66
2017-06-30T08:21:01.847Z,1024.58
2017-06-30T08:22:02.488Z,1024.66
2017-06-30T08:23:03.129Z,1024.64
2017-06-30T08:24:03.773Z,1024.68
2017-06-30T08:25:04.416Z,1024.69
2017-06-30T08:26:05.059Z,1024.74
2017-06-30T08:27:05.701Z,1024.74
2017-06-30T08:28:06.339Z,1024.84
2017-06-30T08:29:07.181Z,1024.95
2017-06-30T08:30:07.825Z,1024.84
2017-06-30T08:31:08.466Z,1024.89
2017-06-30T08:32:09.110Z,1024.95
2017-06-30T08:33:09.749Z,1025.04
2017-06-30T08:34:10.388Z,1024.99
2017-06-30T08:35:11.030Z,1025.01
2017-06-30T08:36:11.673Z,1024.95
2017-06-30T08:37:12.314Z,1024.97
2017-06-30T08:38:13.107Z,1025.04
2017-06-30T08:39:13.748Z,1025.05
2017-06-30T08:40:14.388Z,1025.00
2017-06-30T08:41:15.032Z,1025.02
2017-06-30T08:42:15.676Z,1025.03
2017-06-30T08:43:16.319Z,1025.08
2017-06-30T08:44:16.957Z,1025.07
2017-06-30T08:45:17.599Z,1025.03
2017-06-30T08:46:18.439Z,1025.02
2017-06-30T08:47:19.085Z,1025.13
2017-06-30T08:48:19.727Z,1025.11
2017-06-30T08:49:20.368Z,1025.21
2017-06-30T08:50:21.007Z,1025.13
2017-06-30T08:51:21.648Z,1025.10
2017-06-30T08:52:22.290Z,1025.16
2017-06-30T08:53:22.930Z,1025.15
2017-06-30T08:54:23.722Z,1025.17
2017-06-30T08:55:24.363Z,1025.19
2017-06-30T08:56:25.009Z,1025.17
2017-06-30T08:57:25.645Z,1025.18
2017-06-30T08:58:26.286Z,1025.22
2017-06-30T08:59:26.930Z,1025.15
2017-06-30T09:00:27.573Z,1025.20
2017-06-30T09:01:28.213Z,1025.20
2017-06-30T09:02:29.055Z,1025.26
2017-06-30T09:03:29.695Z,1025.22
2017-06-30T09:04:30.339Z,1025.23
2017-06-30T09:05:30.982Z,1025.21
2017-06-30T09:06:31.627Z,1025.14
2017-06-30T09:07:32.267Z,1025.18
2017-06-30T09:08:32.907Z,1025.20
2017-06-30T09:09:33.550Z,1025.16
2017-06-30T09:10:34.543Z,1025.19
2017-06-30T09:11:35.185Z,1025.26
2017-06-30T09:12:35.824Z,1025.22
2017-06-30T09:13:36.465Z,1025.24
2017-06-30T09:14:37.109Z,1025.13
2017-06-30T09:15:37.751Z,1025.28
2017-06-30T09:16:38.395Z,1025.24
2017-06-30T09:17:39.038Z,1025.21
2017-06-30T09:18:39.677Z,1025.25
2017-06-30T09:19:40.819Z,1025.23
2017-06-30T09:20:41.460Z,1025.30
2017-06-30T09:21:42.102Z,1025.33
2017-06-30T09:22:42.747Z,1025.16
2017-06-30T09:23:43.389Z,1025.23
2017-06-30T09:24:44.032Z,1025.19
2017-06-30T09:25:44.671Z,1025.21
2017-06-30T09:26:45.312Z,1025.18
2017-06-30T09:27:46.104Z,1025.11
2017-06-30T09:28:46.745Z,1025.16
2017-06-30T09:29:47.387Z,1025.18
2017-06-30T09:30:48.028Z,1025.24
2017-06-30T09:31:48.623Z,1025.19
2017-06-30T09:32:49.265Z,1025.24
2017-06-30T09:33:49.909Z,1025.18
2017-06-30T09:34:50.553Z,1025.16
2017-06-30T09:35:51.395Z,1025.25
2017-06-30T09:36:52.038Z,1025.12
2017-06-30T09:37:52.679Z,1025.20
2017-06-30T09:38:53.321Z,1025.19
2017-06-30T09:39:53.915Z,1025.23
2017-06-30T09:40:54.556Z,1025.25
2017-06-30T09:41:55.197Z,1025.25
2017-06-30T09:42:55.840Z,1025.23
2017-06-30T09:43:56.531Z,1025.28
2017-06-30T09:44:57.173Z,1025.29
2017-06-30T09:45:57.815Z,1025.27
2017-06-30T09:46:58.458Z,1025.34
2017-06-30T09:47:59.102Z,1025.27
2017-06-30T09:48:59.744Z,1025.31
2017-06-30T09:50:00.387Z,1025.33
2017-06-30T09:51:01.029Z,1025.34
2017-06-30T09:52:01.671Z,1025.33
2017-06-30T09:53:02.511Z,1025.41
2017-06-30T09:54:03.153Z,1025.41
2017-06-30T09:55:03.799Z,1025.41
2017-06-30T09:56:04.448Z,1025.46
2017-06-30T09:57:05.093Z,1025.49
2017-06-30T09:58:05.739Z,1025.39
2017-06-30T09:59:06.385Z,1025.43
2017-06-30T10:00:07.033Z,1025.46
2017-06-30T10:01:07.979Z,1025.47
2017-06-30T10:02:08.625Z,1025.47
2017-06-30T10:03:09.271Z,1025.51
2017-06-30T10:04:09.918Z,1025.57
2017-06-30T10:05:10.563Z,1025.52
2017-06-30T10:06:11.210Z,1025.57
2017-06-30T10:07:11.858Z,1025.55
2017-06-30T10:08:12.504Z,1025.58
2017-06-30T10:09:13.300Z,1025.53
2017-06-30T10:10:13.982Z,1025.57
2017-06-30T10:11:14.594Z,1025.53
2017-06-30T10:12:15.241Z,1025.56
2017-06-30T10:13:15.886Z,1025.63
2017-06-30T10:14:16.532Z,1025.68
2017-06-30T10:15:17.383Z,1025.61
2017-06-30T10:16:18.027Z,1025.61
2017-06-30T10:17:18.625Z,1025.52
2017-06-30T10:18:19.268Z,1025.65
2017-06-30T10:19:19.912Z,1025.64
2017-06-30T10:20:20.556Z,1025.64
2017-06-30T10:21:21.203Z,1025.67
2017-06-30T10:22:21.846Z,1025.66
2017-06-30T10:23:22.646Z,1025.62
2017-06-30T10:24:23.291Z,1025.66
2017-06-30T10:25:23.938Z,1025.68
2017-06-30T10:26:24.587Z,1025.65
2017-06-30T10:27:25.232Z,1025.63
2017-06-30T10:28:25.878Z,1025.61
2017-06-30T10:29:26.525Z,1025.57
2017-06-30T10:30:27.173Z,1025.67
2017-06-30T10:31:27.969Z,1025.66
2017-06-30T10:32:28.763Z,1025.71
2017-06-30T10:33:29.408Z,1025.67
2017-06-30T10:34:30.052Z,1025.71
2017-06-30T10:35:30.647Z,1025.66
2017-06-30T10:36:31.295Z,1025.70
2017-06-30T10:37:31.940Z,1025.71
2017-06-30T10:38:32.647Z,1025.63
2017-06-30T10:39:33.290Z,1025.63
2017-06-30T10:40:34.085Z,1025.69
2017-06-30T10:41:34.732Z,1025.70
2017-06-30T10:42:35.378Z,1025.75
2017-06-30T10:43:36.026Z,1025.66
2017-06-30T10:44:36.675Z,1025.67
2017-06-30T10:45:37.321Z,1025.68
2017-06-30T10:46:37.967Z,1025.79
2017-06-30T10:47:38.616Z,1025.76
2017-06-30T10:48:39.262Z,1025.71
2017-06-30T10:49:40.109Z,1025.71
2017-06-30T10:50:40.756Z,1025.71
2017-06-30T10:51:41.402Z,1025.63
2017-06-30T10:52:42.048Z,1025.73
2017-06-30T10:53:42.695Z,1025.69
2017-06-30T10:54:43.346Z,1025.65
2017-06-30T10:55:44.047Z,1025.67
2017-06-30T10:56:44.692Z,1025.65
2017-06-30T10:57:45.536Z,1025.72
2017-06-30T10:58:46.183Z,1025.67
2017-06-30T10:59:46.830Z,1025.67
2017-06-30T11:00:47.478Z,1025.73
2017-06-30T11:01:48.125Z,1025.67
2017-06-30T11:02:48.773Z,1025.64
2017-06-30T11:03:49.421Z,1025.63
2017-06-30T11:04:50.065Z,1025.58
2017-06-30T11:05:50.963Z,1025.68
2017-06-30T11:06:51.615Z,1025.63
2017-06-30T11:07:52.260Z,1025.61
2017-06-30T11:08:52.906Z,1025.70
2017-06-30T11:09:53.553Z,1025.72
2017-06-30T11:10:54.200Z,1025.64
2017-06-30T11:11:54.846Z,1025.59
2017-06-30T11:12:55.490Z,1025.68
2017-06-30T11:13:56.337Z,1025.71
2017-06-30T11:14:56.984Z,1025.67
2017-06-30T11:15:57.629Z,1025.71
2017-06-30T11:16:58.277Z,1025.69
2017-06-30T11:17:58.923Z,1025.80
2017-06-30T11:18:59.574Z,1025.77
2017-06-30T11:20:00.222Z,1025.70
2017-06-30T11:21:00.874Z,1025.77
2017-06-30T11:22:01.983Z,1025.82
2017-06-30T11:23:02.635Z,1025.76
2017-06-30T11:24:03.284Z,1025.82
2017-06-30T11:25:03.933Z,1025.90
2017-06-30T11:26:04.585Z,1025.87
2017-06-30T11:27:05.235Z,1025.83
2017-06-30T11:28:05.882Z,1025.72
2017-06-30T11:29:06.532Z,1025.80
2017-06-30T11:30:07.183Z,1025.83
2017-06-30T11:31:08.082Z,1025.83
2017-06-30T11:32:08.734Z,1025.90
2017-06-30T11:33:09.382Z,1025.79
2017-06-30T11:34:10.035Z,1025.80
2017-06-30T11:35:10.685Z,1025.81
2017-06-30T11:36:11.333Z,1025.81
2017-06-30T11:37:11.983Z,1025.79
2017-06-30T11:38:12.632Z,1025.78
2017-06-30T11:39:13.532Z,1025.77
2017-06-30T11:40:14.184Z,1025.77
2017-06-30T11:41:14.843Z,1025.84
2017-06-30T11:42:15.492Z,1025.91
2017-06-30T11:43:16.141Z,1025.80
2017-06-30T11:44:16.793Z,1025.84
2017-06-30T11:45:17.440Z,1025.96
2017-06-30T11:46:18.094Z,1025.92
2017-06-30T11:47:18.894Z,1025.93
2017-06-30T11:48:19.544Z,1025.95
2017-06-30T11:49:20.188Z,1026.02
2017-06-30T11:50:20.840Z,1025.95
2017-06-30T11:51:21.489Z,1026.02
2017-06-30T11:52:22.138Z,1026.08
2017-06-30T11:53:22.788Z,1026.08
2017-06-30T11:54:23.437Z,1026.00
2017-06-30T11:55:24.338Z,1026.00
2017-06-30T11:56:24.990Z,1026.11
2017-06-30T11:57:25.638Z,1025.99
2017-06-30T11:58:26.289Z,1026.05
2017-06-30T11:59:26.938Z,1026.11
2017-06-30T12:00:27.590Z,1026.12
2017-06-30T12:01:28.241Z,1026.10
2017-06-30T12:02:28.893Z,1026.02
2017-06-30T12:03:29.547Z,1026.04
2017-06-30T12:04:30.349Z,1026.11
2017-06-30T12:05:31.002Z,1026.12
2017-06-30T12:06:31.653Z,1026.11
2017-06-30T12:07:32.307Z,1026.05
2017-06-30T12:08:32.961Z,1026.09
2017-06-30T12:09:33.615Z,1026.02
2017-06-30T12:10:34.266Z,1026.05
2017-06-30T12:11:34.919Z,1026.05
2017-06-30T12:12:35.771Z,1026.04
2017-06-30T12:13:36.427Z,1026.16